Terminal Aerodrome Forecast
Issued by NWS Cleveland, OH

Home | Current Version | Previous Version | Graphics & Text | Print | Product List | Glossary Off
Versions: 1 2 3 4 5 6 7 8 9 10 11 12 13 14 15 16 17 18 19

000
FTUS41 KCLE 181458 AAA
TAFMFD
TAF AMD
KMFD 181458Z 1815/1912 25010KT 2SM BR OVC004
      TEMPO 1815/1818 4SM BR OVC007
     FM181800 24008KT 5SM BR OVC010
     FM182000 23006KT P6SM OVC012
     FM190000 21006KT P6SM OVC012=

USA.gov is the U.S. government's official web portal to all federal, state and local government web resources and services.